This is the latest recevied weather packets stored in our database for station/object 9W2CEW-1. If no packets are shown the sender has not sent any weather packets the latest 10 day(s).
| Time | Temp. | Humidity | Pressure | Rain* | Wind** | Luminosity | Snow |
|---|---|---|---|---|---|---|---|
| 1787794107 | 35° C | 49% | 1005.8 hPa | - | - | - | - |
| 1787793880 | 35.56° C | 46% | 1005.8 hPa | - | - | - | - |
| 1787793809 | 36.67° C | 46% | 1007.3 hPa | - | - | - | - |
| 1787793744 | 37.22° C | 43% | 1005.9 hPa | - | - | - | - |
| 1787793052 | 36.67° C | 42% | 1006.2 hPa | - | - | - | - |
| 1787792909 | 37.22° C | 44% | 1007.1 hPa | - | - | - | - |
| 1787792703 | 36.11° C | 44% | 1006.4 hPa | - | - | - | - |
| 1787792611 | 34.44° C | 48% | 1006.6 hPa | - | - | - | - |
| 1787792484 | 35° C | 48% | 1006.8 hPa | - | - | - | - |
| 1787792398 | 34.44° C | 49% | 1006.9 hPa | - | - | - | - |
| 1787792266 | 36.11° C | 45% | 1006.9 hPa | - | - | - | - |
| 1787792148 | 36.11° C | 45% | 1007 hPa | - | - | - | - |
| 1787792011 | 39.44° C | 40% | 1007 hPa | - | - | - | - |
| 1787791847 | 35° C | 48% | 1007.5 hPa | - | - | - | - |
| 1787791109 | 36.67° C | 45% | 1006.7 hPa | - | - | - | - |
| 1787790209 | 36.67° C | 44% | 1006.4 hPa | - | - | - | - |
| 1787789310 | 35° C | 50% | 1006.3 hPa | - | - | - | - |
| 1787788409 | 35° C | 49% | 1006.2 hPa | - | - | - | - |
| 1787787508 | 34.44° C | 50% | 1006.2 hPa | - | - | - | - |
| 1787786609 | 35° C | 50% | 1006.1 hPa | - | - | - | - |
| 1787785708 | 35° C | 49% | 1006 hPa | - | - | - | - |
| 1787784808 | 35° C | 49% | 1006 hPa | - | - | - | - |
| 1787783908 | 35° C | 48% | 1006 hPa | - | - | - | - |
| 1787783008 | 34.44° C | 51% | 1005.8 hPa | - | - | - | - |
| 1787782186 | 35° C | 47% | 1007.7 hPa | - | - | - | - |
* Rain since midnight (hover to see other rain measurements)
** Current wind speed in m/s (hover to see current wind gust speed)